Time;durP1;ratioP1;P1;durP2;ratioP2;P2;SDS_P1;SDS_P2;PMS_P1;PMS_P2;Temp;Humidity;BMP_temperature;BMP_pressure;BME280_temperature;BME280_humidity;BME280_pressure;Samples;Min_cycle;Max_cycle;Signal;HPM_P1;HPM_P2
2021/12/01 00:00:09;;;;;;;0.30;0.25;;;;;;;2.63;100.00;95275.97;5012571;28;24427;-73
2021/12/01 00:02:36;;;;;;;0.10;0.10;;;;;;;2.63;100.00;95275.97;5012544;28;24467;-73
2021/12/01 00:05:04;;;;;;;0.28;0.20;;;;;;;2.67;100.00;95264.75;5011959;28;24809;-73
2021/12/01 00:07:34;;;;;;;1.77;1.45;;;;;;;2.70;100.00;95266.34;5012250;28;24451;-74
2021/12/01 00:10:01;;;;;;;1.03;0.70;;;;;;;2.62;100.00;95256.41;5012158;28;24460;-73
2021/12/01 00:12:27;;;;;;;0.90;0.20;;;;;;;2.69;100.00;95259.56;5011941;28;24448;-73
2021/12/01 00:14:54;;;;;;;2.83;0.50;;;;;;;2.61;100.00;95260.69;5012001;28;24431;-73
2021/12/01 00:17:20;;;;;;;2.15;1.45;;;;;;;2.61;100.00;95254.75;5011982;28;24479;-73
2021/12/01 00:19:47;;;;;;;1.80;0.80;;;;;;;2.61;100.00;95247.09;5012078;28;24475;-73
2021/12/01 00:22:14;;;;;;;0.50;0.40;;;;;;;2.54;100.00;95232.88;5011930;28;24419;-73
2021/12/01 00:24:41;;;;;;;1.40;0.30;;;;;;;2.58;100.00;95234.44;5011566;28;24444;-73
2021/12/01 00:27:07;;;;;;;2.65;1.48;;;;;;;2.53;100.00;95228.69;5011559;28;24431;-73
2021/12/01 00:29:34;;;;;;;0.57;0.30;;;;;;;2.52;100.00;95237.22;5012029;28;24492;-73
2021/12/01 00:32:00;;;;;;;1.13;0.80;;;;;;;2.57;100.00;95243.00;5011848;28;24451;-73
2021/12/01 00:34:27;;;;;;;0.50;0.30;;;;;;;2.52;100.00;95232.09;5011703;28;24512;-73
2021/12/01 00:36:53;;;;;;;1.98;1.48;;;;;;;2.52;100.00;95230.41;5011235;28;24973;-73
2021/12/01 00:39:21;;;;;;;1.00;0.47;;;;;;;2.54;100.00;95220.09;5011571;28;24431;-73
2021/12/01 00:41:49;;;;;;;3.03;2.22;;;;;;;2.43;100.00;95218.81;5011606;28;24431;-73
2021/12/01 00:44:16;;;;;;;1.38;0.38;;;;;;;2.46;100.00;95220.41;5011640;28;24441;-73
2021/12/01 00:46:53;;;;;;;1.40;0.85;;;;;;;2.48;100.00;95221.16;5011220;28;24428;-73
2021/12/01 00:49:20;;;;;;;5.55;3.97;;;;;;;2.40;100.00;95218.91;5011492;28;25033;-73
2021/12/01 00:51:47;;;;;;;10.10;6.10;;;;;;;2.38;100.00;95219.91;5011349;28;24440;-73
2021/12/01 00:54:13;;;;;;;0.88;0.50;;;;;;;2.29;100.00;95215.97;5011211;28;24544;-73
2021/12/01 00:56:41;;;;;;;0.60;0.40;;;;;;;2.28;100.00;95204.09;5011049;28;24412;-73
2021/12/01 00:59:07;;;;;;;2.75;1.15;;;;;;;2.26;100.00;95207.56;5011244;28;24419;-73
2021/12/01 01:01:34;;;;;;;0.90;0.30;;;;;;;2.29;100.00;95200.63;5011360;28;24420;-73
2021/12/01 01:04:00;;;;;;;6.07;3.30;;;;;;;2.30;100.00;95202.31;5011227;28;24431;-73
2021/12/01 01:06:27;;;;;;;4.93;3.10;;;;;;;2.21;100.00;95192.44;5010764;28;24449;-73
2021/12/01 01:08:54;;;;;;;0.80;0.40;;;;;;;2.20;100.00;95201.00;5011335;28;24427;-74
2021/12/01 01:16:49;;;;;;;0.40;0.30;;;;;;;2.27;100.00;95186.28;5010662;28;24492;-73
2021/12/01 01:19:17;;;;;;;0.70;0.47;;;;;;;2.18;100.00;95182.34;5011156;28;24539;-73
2021/12/01 01:21:48;;;;;;;0.77;0.47;;;;;;;2.23;100.00;95187.28;5010826;28;24965;-73
2021/12/01 01:24:15;;;;;;;0.70;0.60;;;;;;;2.23;100.00;95180.44;5011065;28;24435;-73
2021/12/01 01:26:42;;;;;;;2.00;0.60;;;;;;;2.18;100.00;95184.88;5010344;28;24416;-73
2021/12/01 01:29:11;;;;;;;1.10;0.50;;;;;;;2.18;100.00;95182.34;5010849;28;24583;-73
2021/12/01 01:31:38;;;;;;;1.40;0.70;;;;;;;2.21;100.00;95177.09;5010602;28;24450;-73
2021/12/01 01:34:05;;;;;;;0.80;0.60;;;;;;;2.15;100.00;95179.88;5010926;28;24424;-73
2021/12/01 01:36:32;;;;;;;1.08;0.60;;;;;;;2.18;100.00;95177.22;5010572;28;24428;-73
2021/12/01 01:38:59;;;;;;;1.90;0.50;;;;;;;2.15;100.00;95178.19;5010839;28;24424;-73
2021/12/01 01:41:26;;;;;;;0.93;0.40;;;;;;;2.23;100.00;95166.84;5011877;28;24428;-73
2021/12/01 01:43:52;;;;;;;0.60;0.52;;;;;;;2.21;100.00;95151.56;5030274;28;24430;-73
2021/12/01 01:46:20;;;;;;;0.70;0.50;;;;;;;2.25;100.00;95155.66;5030244;28;24427;-73
2021/12/01 01:48:50;;;;;;;0.85;0.50;;;;;;;2.16;100.00;95151.75;5030750;28;24778;-73
2021/12/01 01:51:18;;;;;;;0.80;0.50;;;;;;;2.15;100.00;95156.91;5030405;28;24994;-73
2021/12/01 01:53:45;;;;;;;0.70;0.50;;;;;;;2.25;100.00;95147.97;5030454;28;24443;-73
2021/12/01 01:56:11;;;;;;;1.40;0.60;;;;;;;2.25;100.00;95142.88;5034009;28;24420;-73
2021/12/01 01:58:38;;;;;;;0.87;0.53;;;;;;;2.23;100.00;95149.78;5034147;28;24427;-73
2021/12/01 02:01:08;;;;;;;1.02;0.70;;;;;;;2.31;100.00;95140.09;5034511;28;24427;-73
2021/12/01 02:03:39;;;;;;;1.00;0.52;;;;;;;2.32;100.00;95138.34;5034410;28;24497;-73
2021/12/01 02:06:06;;;;;;;1.30;0.70;;;;;;;2.31;100.00;95132.41;5033945;28;24474;-73
2021/12/01 02:08:35;;;;;;;1.00;0.70;;;;;;;2.38;100.00;95133.84;5034259;28;24439;-73
2021/12/01 02:11:05;;;;;;;1.20;0.70;;;;;;;2.40;100.00;95139.69;5033910;28;24450;-73
2021/12/01 02:13:32;;;;;;;0.50;0.40;;;;;;;2.32;100.00;95141.72;5034457;28;24435;-73
2021/12/01 02:16:00;;;;;;;0.63;0.45;;;;;;;2.32;100.00;95144.28;5033951;28;24459;-73
2021/12/01 02:18:27;;;;;;;1.52;0.63;;;;;;;2.32;100.00;95131.50;5034120;28;24431;-73
2021/12/01 02:21:09;;;;;;;1.27;0.50;;;;;;;2.33;100.00;95124.69;5033965;28;24502;-73
2021/12/01 02:23:37;;;;;;;1.08;0.52;;;;;;;2.33;100.00;95115.28;5033713;28;24427;-73
2021/12/01 02:26:05;;;;;;;1.13;0.60;;;;;;;2.32;100.00;95110.25;5033345;28;24443;-73
2021/12/01 02:28:32;;;;;;;0.68;0.52;;;;;;;2.29;100.00;95110.38;5033962;28;24435;-73
2021/12/01 02:30:58;;;;;;;0.57;0.52;;;;;;;2.29;100.00;95103.53;5033854;28;24485;-73
2021/12/01 02:33:26;;;;;;;1.30;0.70;;;;;;;2.31;100.00;95111.97;5033679;28;24444;-73
2021/12/01 02:35:53;;;;;;;1.52;0.60;;;;;;;2.27;100.00;95105.34;5030609;28;24431;-73
2021/12/01 02:38:21;;;;;;;0.60;0.45;;;;;;;2.28;100.00;95098.50;5024181;28;24506;-73
2021/12/01 02:40:48;;;;;;;0.70;0.60;;;;;;;2.33;100.00;95089.72;5032584;28;24463;-73
2021/12/01 02:43:16;;;;;;;1.20;0.63;;;;;;;2.31;100.00;95076.19;5020774;28;24449;-73
2021/12/01 02:45:42;;;;;;;1.73;0.65;;;;;;;2.33;100.00;95071.00;5013404;28;24435;-73
2021/12/01 02:48:11;;;;;;;0.70;0.50;;;;;;;2.33;100.00;95066.72;5018671;28;24992;-73
2021/12/01 02:50:37;;;;;;;1.20;0.70;;;;;;;2.33;100.00;95060.78;5019993;28;24437;-73
2021/12/01 02:53:04;;;;;;;1.30;0.63;;;;;;;2.39;100.00;95060.56;5013667;28;24452;-73
2021/12/01 02:55:36;;;;;;;2.10;0.80;;;;;;;2.41;100.00;95048.53;5024638;28;24477;-73
2021/12/01 02:58:03;;;;;;;0.73;0.52;;;;;;;2.37;100.00;95055.50;5017362;28;24431;-73
2021/12/01 03:00:30;;;;;;;0.88;0.60;;;;;;;2.42;100.00;95053.59;5033186;28;24427;-73
2021/12/01 03:02:57;;;;;;;0.90;0.70;;;;;;;2.42;100.00;95055.31;5033354;28;24773;-73
2021/12/01 03:05:24;;;;;;;1.00;0.55;;;;;;;2.52;100.00;95045.50;5031694;28;24463;-73
2021/12/01 03:07:51;;;;;;;0.85;0.60;;;;;;;2.48;100.00;95042.25;5032876;28;24424;-73
2021/12/01 03:10:18;;;;;;;0.85;0.50;;;;;;;2.48;100.00;95028.66;5032799;28;24969;-73
2021/12/01 03:12:45;;;;;;;0.70;0.65;;;;;;;2.53;100.00;95021.63;5023293;28;24456;-73
2021/12/01 03:15:16;;;;;;;0.80;0.50;;;;;;;2.56;100.00;95021.47;5012842;28;24438;-73
2021/12/01 03:17:44;;;;;;;5.35;0.70;;;;;;;2.55;100.00;95009.59;5013047;28;25159;-73
2021/12/01 03:20:11;;;;;;;1.90;0.70;;;;;;;2.61;100.00;95002.50;5013218;28;24467;-73
2021/12/01 03:22:38;;;;;;;0.70;0.60;;;;;;;2.60;100.00;95000.84;5013144;28;24474;-73
2021/12/01 03:25:09;;;;;;;0.67;0.63;;;;;;;2.63;100.00;94990.50;5012612;28;24818;-73
2021/12/01 03:27:36;;;;;;;1.70;0.70;;;;;;;2.64;100.00;94998.97;5013360;28;24440;-73
2021/12/01 03:30:05;;;;;;;0.80;0.50;;;;;;;2.69;100.00;94988.53;5032531;28;24432;-73
2021/12/01 03:32:32;;;;;;;0.97;0.60;;;;;;;2.69;100.00;94996.22;5032799;28;24455;-73
2021/12/01 03:34:58;;;;;;;1.00;0.50;;;;;;;2.62;100.00;94983.69;5032142;28;25071;-73
2021/12/01 03:37:25;;;;;;;0.90;0.47;;;;;;;2.63;100.00;94987.06;5032297;28;24424;-73
2021/12/01 03:39:52;;;;;;;0.90;0.55;;;;;;;2.69;100.00;94986.81;5032528;28;24420;-73
2021/12/01 03:42:18;;;;;;;1.00;0.60;;;;;;;2.66;100.00;94982.66;5032383;28;24428;-73
2021/12/01 03:44:44;;;;;;;1.30;0.70;;;;;;;2.61;100.00;94986.34;5032263;28;24494;-73
2021/12/01 03:47:12;;;;;;;0.90;0.70;;;;;;;2.57;100.00;94985.63;5031906;28;24454;-73
2021/12/01 03:49:39;;;;;;;0.85;0.65;;;;;;;2.58;100.00;94986.47;5032437;28;24443;-73
2021/12/01 03:52:06;;;;;;;1.38;0.68;;;;;;;2.58;100.00;94989.84;5032184;28;24447;-73
2021/12/01 03:54:32;;;;;;;1.70;0.88;;;;;;;2.63;100.00;94980.25;5032108;28;24467;-73
2021/12/01 03:56:59;;;;;;;2.50;0.70;;;;;;;2.63;100.00;94977.72;5031884;28;24430;-73
2021/12/01 03:59:25;;;;;;;1.58;0.70;;;;;;;2.60;100.00;94979.56;5031975;28;24426;-73
2021/12/01 04:01:52;;;;;;;1.60;0.80;;;;;;;2.66;100.00;94977.53;5032284;28;24412;-73
2021/12/01 04:04:20;;;;;;;1.00;0.60;;;;;;;2.69;100.00;94978.31;5032251;28;24428;-73
2021/12/01 04:06:46;;;;;;;0.70;0.55;;;;;;;2.66;100.00;94974.16;5031762;28;24431;-73
2021/12/01 04:09:12;;;;;;;0.95;0.60;;;;;;;2.64;100.00;94966.56;5031964;28;24424;-73
2021/12/01 04:11:39;;;;;;;1.35;0.80;;;;;;;2.65;100.00;94949.50;5031813;28;24420;-73
2021/12/01 04:14:05;;;;;;;0.85;0.47;;;;;;;2.84;100.00;94945.22;5031669;28;24420;-73
2021/12/01 04:16:32;;;;;;;1.38;0.65;;;;;;;2.88;100.00;94945.91;5031172;28;24801;-73
2021/12/01 04:18:58;;;;;;;0.90;0.68;;;;;;;2.85;100.00;94925.56;5031640;28;24438;-73
2021/12/01 04:21:27;;;;;;;0.52;0.43;;;;;;;2.91;100.00;94932.97;5031818;28;24431;-73
2021/12/01 04:23:54;;;;;;;0.60;0.40;;;;;;;3.01;100.00;94920.59;5031571;28;24419;-73
2021/12/01 04:26:23;;;;;;;0.60;0.57;;;;;;;3.02;100.00;94917.13;5031621;28;24440;-73
2021/12/01 04:28:50;;;;;;;0.85;0.60;;;;;;;3.09;100.00;94905.72;5031540;28;24422;-73
2021/12/01 04:31:18;;;;;;;0.53;0.40;;;;;;;3.09;100.00;94900.59;5031719;28;24420;-73
2021/12/01 04:33:44;;;;;;;1.00;0.57;;;;;;;3.06;100.00;94875.16;5031438;28;24447;-73
2021/12/01 04:36:11;;;;;;;0.50;0.40;;;;;;;3.15;100.00;94870.44;5031280;28;24443;-73
2021/12/01 04:38:39;;;;;;;0.55;0.40;;;;;;;3.12;100.00;94859.53;5031272;28;24938;-73
2021/12/01 04:41:08;;;;;;;0.38;0.35;;;;;;;3.15;100.00;94851.66;5031258;28;24427;-73
2021/12/01 04:43:34;;;;;;;1.38;0.50;;;;;;;3.32;100.00;94844.00;5016544;28;24505;-73
2021/12/01 04:46:01;;;;;;;0.75;0.45;;;;;;;3.34;100.00;94841.41;5011241;28;24435;-73
2021/12/01 04:48:28;;;;;;;0.75;0.40;;;;;;;3.24;100.00;94840.19;5011601;28;24427;-73
2021/12/01 04:50:55;;;;;;;1.10;0.30;;;;;;;3.31;100.00;94829.56;5011384;28;24432;-73
2021/12/01 04:53:22;;;;;;;0.90;0.50;;;;;;;3.31;100.00;94828.75;5011278;28;24849;-73
2021/12/01 04:55:50;;;;;;;0.88;0.50;;;;;;;3.34;100.00;94821.75;5010779;28;24962;-73
2021/12/01 04:58:16;;;;;;;0.60;0.32;;;;;;;3.39;100.00;94831.75;5011422;28;24431;-73
2021/12/01 05:00:43;;;;;;;0.33;0.30;;;;;;;3.71;100.00;94821.59;5011448;28;24435;-73
2021/12/01 05:03:09;;;;;;;0.85;0.43;;;;;;;3.54;100.00;94822.47;5011375;28;24479;-73
2021/12/01 05:05:36;;;;;;;1.30;0.40;;;;;;;3.53;100.00;94810.59;5010879;28;24431;-73
2021/12/01 05:08:03;;;;;;;0.82;0.35;;;;;;;3.50;100.00;94808.19;5011029;28;24518;-73
2021/12/01 05:10:30;;;;;;;0.40;0.40;;;;;;;3.65;100.00;94799.72;5011230;28;24436;-73
2021/12/01 05:12:58;;;;;;;0.30;0.30;;;;;;;3.62;100.00;94798.13;5011202;28;24485;-73
2021/12/01 05:15:24;;;;;;;0.70;0.40;;;;;;;3.58;100.00;94799.19;5010803;28;24431;-73
2021/12/01 05:17:51;;;;;;;0.68;0.50;;;;;;;3.58;100.00;94800.94;5011014;28;24977;-73
2021/12/01 05:20:17;;;;;;;0.95;0.60;;;;;;;3.55;100.00;94803.63;5010971;28;24427;-73
2021/12/01 05:22:44;;;;;;;3.25;0.60;;;;;;;3.45;100.00;94802.44;5010808;28;24487;-73
2021/12/01 05:25:11;;;;;;;1.40;0.50;;;;;;;3.45;100.00;94798.19;5010610;28;24444;-73
2021/12/01 05:27:37;;;;;;;0.67;0.50;;;;;;;3.45;100.00;94802.44;5011069;28;24801;-73
2021/12/01 05:30:07;;;;;;;1.10;0.38;;;;;;;3.46;100.00;94796.44;5010232;28;24474;-73
2021/12/01 05:32:34;;;;;;;2.43;0.70;;;;;;;3.39;100.00;94801.03;5010741;28;24993;-73
2021/12/01 05:35:01;;;;;;;1.33;0.70;;;;;;;3.46;100.00;94792.13;5010326;28;24608;-73
2021/12/01 05:37:27;;;;;;;1.27;0.50;;;;;;;3.52;100.00;94791.84;5010585;28;24432;-72
2021/12/01 05:39:54;;;;;;;0.70;0.38;;;;;;;3.59;100.00;94790.59;5010766;28;24431;-72
2021/12/01 05:42:20;;;;;;;2.20;1.60;;;;;;;3.45;100.00;94780.25;5015102;28;24436;-72
2021/12/01 05:44:47;;;;;;;0.80;0.30;;;;;;;3.67;100.00;94774.00;5028231;28;24867;-71
2021/12/01 05:47:15;;;;;;;1.25;0.75;;;;;;;3.60;100.00;94766.66;5028557;28;24817;-71
2021/12/01 05:49:44;;;;;;;0.70;0.50;;;;;;;3.51;100.00;94771.41;5028895;28;24999;-71
2021/12/01 05:52:12;;;;;;;0.93;0.70;;;;;;;3.43;100.00;94774.38;5029707;28;24482;-71
2021/12/01 05:54:38;;;;;;;0.80;0.40;;;;;;;3.59;100.00;94748.81;5029597;28;24423;-71
2021/12/01 05:57:05;;;;;;;1.20;0.60;;;;;;;3.59;100.00;94744.50;5029645;28;24427;-71
2021/12/01 05:59:32;;;;;;;1.20;0.40;;;;;;;3.63;100.00;94740.06;5030170;28;24418;-71
2021/12/01 06:01:59;;;;;;;0.55;0.50;;;;;;;3.63;100.00;94734.94;5030211;28;24430;-71
2021/12/01 06:04:27;;;;;;;1.08;0.30;;;;;;;3.71;100.00;94737.09;5030038;28;24427;-71
2021/12/01 06:06:54;;;;;;;0.98;0.50;;;;;;;3.70;100.00;94728.59;5029615;28;25052;-71
2021/12/01 06:09:21;;;;;;;0.68;0.40;;;;;;;3.83;100.00;94723.66;5030170;28;24416;-71
2021/12/01 06:11:48;;;;;;;1.30;1.20;;;;;;;3.71;100.00;94726.84;5030153;28;24419;-71
2021/12/01 06:14:15;;;;;;;0.82;0.40;;;;;;;3.66;100.00;94716.84;5030048;28;24447;-71
2021/12/01 06:16:43;;;;;;;0.47;0.30;;;;;;;3.78;100.00;94713.66;5029726;28;24785;-71
2021/12/01 06:19:09;;;;;;;1.50;0.75;;;;;;;3.77;100.00;94718.84;5029856;28;24435;-71
2021/12/01 06:21:37;;;;;;;1.05;0.60;;;;;;;3.80;100.00;94721.25;5030104;28;24493;-71
2021/12/01 06:24:04;;;;;;;1.67;0.90;;;;;;;3.79;100.00;94711.94;5030015;28;24443;-71
2021/12/01 06:26:30;;;;;;;2.28;1.35;;;;;;;3.76;100.00;94717.22;5029464;28;24431;-71
2021/12/01 06:28:57;;;;;;;0.77;0.40;;;;;;;3.90;100.00;94719.06;5029908;28;24454;-71
2021/12/01 06:31:23;;;;;;;3.17;2.13;;;;;;;3.84;100.00;94709.94;5029746;28;24430;-71
2021/12/01 06:33:50;;;;;;;1.10;0.70;;;;;;;3.83;100.00;94698.06;5029660;28;24451;-71
2021/12/01 06:36:16;;;;;;;1.52;1.20;;;;;;;3.79;100.00;94694.81;5029308;28;24481;-71
2021/12/01 06:38:44;;;;;;;0.90;0.50;;;;;;;3.80;100.00;94683.66;5029907;28;24443;-71
2021/12/01 06:41:11;;;;;;;1.00;0.40;;;;;;;3.82;100.00;94666.50;5030798;28;24443;-71
2021/12/01 06:43:37;;;;;;;0.90;0.40;;;;;;;3.80;100.00;94668.31;5031022;28;24527;-72
2021/12/01 06:46:04;;;;;;;1.70;0.50;;;;;;;3.77;100.00;94659.97;5032765;28;24439;-71
2021/12/01 06:48:30;;;;;;;0.65;0.40;;;;;;;3.97;100.00;94658.88;5033343;28;24439;-71
2021/12/01 06:50:57;;;;;;;1.17;0.32;;;;;;;4.05;100.00;94649.88;5033373;28;24502;-71
2021/12/01 06:53:23;;;;;;;1.77;0.60;;;;;;;3.86;100.00;94664.59;5033465;28;24497;-71
2021/12/01 06:55:51;;;;;;;1.17;1.00;;;;;;;3.74;100.00;94657.56;5032891;28;24507;-71
2021/12/01 06:58:17;;;;;;;0.90;0.60;;;;;;;3.69;100.00;94657.00;5033024;28;24439;-71
2021/12/01 07:00:44;;;;;;;1.92;0.90;;;;;;;3.75;100.00;94647.25;5032862;28;24969;-71
2021/12/01 07:03:10;;;;;;;1.90;0.93;;;;;;;3.77;100.00;94649.72;5033353;28;24977;-78
2021/12/01 07:05:37;;;;;;;1.25;0.52;;;;;;;3.84;100.00;94640.78;5025708;28;24463;-71
2021/12/01 07:08:04;;;;;;;0.63;0.40;;;;;;;3.95;100.00;94635.09;5033222;28;24459;-71
2021/12/01 07:10:31;;;;;;;0.70;0.38;;;;;;;3.82;100.00;94640.03;5032943;28;24428;-71
2021/12/01 07:12:59;;;;;;;0.52;0.43;;;;;;;3.86;100.00;94636.44;5032633;28;24455;-71
2021/12/01 07:15:25;;;;;;;2.07;0.97;;;;;;;3.89;100.00;94636.22;5032327;28;24443;-71
2021/12/01 07:17:51;;;;;;;0.80;0.60;;;;;;;3.94;100.00;94634.25;5033131;28;24485;-71
2021/12/01 07:20:18;;;;;;;1.13;0.50;;;;;;;4.00;100.00;94628.78;5030632;28;25046;-71
2021/12/01 07:22:44;;;;;;;0.80;0.43;;;;;;;3.92;100.00;94625.00;5027995;28;24458;-71
2021/12/01 07:25:13;;;;;;;0.77;0.52;;;;;;;3.84;100.00;94622.88;5027226;28;24443;-71
2021/12/01 07:27:39;;;;;;;1.07;0.50;;;;;;;3.91;100.00;94608.81;5029444;28;25099;-71
2021/12/01 07:30:08;;;;;;;0.65;0.35;;;;;;;3.94;100.00;94612.94;5023197;28;24436;-71
2021/12/01 07:32:35;;;;;;;1.50;0.60;;;;;;;3.88;100.00;94597.00;5032701;28;24435;-72
2021/12/01 07:35:03;;;;;;;0.60;0.30;;;;;;;4.00;100.00;94597.22;5031982;28;24463;-71
2021/12/01 07:37:29;;;;;;;0.60;0.40;;;;;;;3.98;100.00;94593.94;5032612;28;24438;-71
2021/12/01 07:39:56;;;;;;;0.68;0.45;;;;;;;4.04;100.00;94596.13;5032648;28;24422;-71
2021/12/01 07:42:23;;;;;;;0.30;0.30;;;;;;;3.94;100.00;94590.72;5032448;28;24790;-71
2021/12/01 07:44:49;;;;;;;1.02;0.40;;;;;;;3.88;100.00;94585.91;5032428;28;24416;-71
2021/12/01 07:47:17;;;;;;;0.70;0.40;;;;;;;4.00;100.00;94584.41;5032142;28;24841;-71
2021/12/01 07:49:43;;;;;;;1.38;0.30;;;;;;;3.99;100.00;94580.19;5032118;28;24435;-71
2021/12/01 07:52:11;;;;;;;0.47;0.35;;;;;;;3.92;100.00;94584.84;5031717;28;24421;-66
2021/12/01 07:54:39;;;;;;;0.60;0.45;;;;;;;4.04;100.00;94576.50;5032031;28;24440;-71
2021/12/01 07:57:06;;;;;;;0.85;0.65;;;;;;;4.00;100.00;94574.97;5031816;28;24485;-71
2021/12/01 07:59:32;;;;;;;1.10;0.50;;;;;;;3.99;100.00;94570.78;5032239;28;24428;-71
2021/12/01 08:01:59;;;;;;;0.35;0.35;;;;;;;4.06;100.00;94568.69;5032250;28;24427;-71
2021/12/01 08:04:27;;;;;;;0.77;0.35;;;;;;;4.19;100.00;94561.13;5032103;28;24527;-71
2021/12/01 08:06:54;;;;;;;1.13;0.80;;;;;;;4.06;100.00;94561.00;5031627;28;24430;-72
2021/12/01 08:09:21;;;;;;;1.00;0.55;;;;;;;4.04;100.00;94558.56;5031929;28;24829;-72
2021/12/01 08:11:47;;;;;;;1.27;0.70;;;;;;;4.11;100.00;94549.56;5031874;28;24497;-72
2021/12/01 08:14:14;;;;;;;0.90;0.45;;;;;;;4.17;100.00;94545.84;5031960;28;24450;-72
2021/12/01 08:16:40;;;;;;;1.42;1.20;;;;;;;4.17;100.00;94538.16;5031630;28;24420;-72
2021/12/01 08:19:07;;;;;;;0.32;0.25;;;;;;;4.11;100.00;94535.94;5031807;28;24408;-72
2021/12/01 08:21:35;;;;;;;1.30;0.50;;;;;;;4.08;100.00;94533.59;5031756;28;24521;-72
2021/12/01 08:24:01;;;;;;;3.17;1.30;;;;;;;4.12;100.00;94529.94;5031574;28;24426;-72
2021/12/01 08:26:28;;;;;;;2.45;1.00;;;;;;;4.19;100.00;94522.69;5031069;28;24431;-72
2021/12/01 08:28:55;;;;;;;1.48;0.82;;;;;;;4.24;100.00;94518.97;5031587;28;24440;-72
2021/12/01 08:31:22;;;;;;;2.80;1.30;;;;;;;4.33;100.00;94517.59;5031594;28;24832;-72
2021/12/01 08:33:49;;;;;;;1.67;0.77;;;;;;;4.39;100.00;94517.25;5031397;28;24546;-72
2021/12/01 08:36:16;;;;;;;2.75;0.98;;;;;;;4.44;100.00;94514.41;5031054;28;24478;-72
2021/12/01 08:38:44;;;;;;;3.30;1.98;;;;;;;4.46;100.00;94505.72;5031239;28;24431;-72
2021/12/01 08:41:12;;;;;;;8.90;4.93;;;;;;;4.54;100.00;94510.38;5031421;28;24419;-72
2021/12/01 08:43:39;;;;;;;3.35;2.35;;;;;;;4.57;100.00;94507.66;5031140;28;24427;-72
2021/12/01 08:46:07;;;;;;;5.25;3.38;;;;;;;4.63;100.00;94503.88;5030849;28;24435;-72
2021/12/01 08:48:34;;;;;;;5.25;2.28;;;;;;;4.63;100.00;94506.44;5031223;28;24419;-72
2021/12/01 08:51:02;;;;;;;3.80;2.47;;;;;;;4.64;100.00;94498.69;5031117;28;24426;-72
2021/12/01 08:53:28;;;;;;;1.77;1.33;;;;;;;4.84;100.00;94494.91;5031223;28;24427;-72
2021/12/01 08:55:57;;;;;;;1.30;0.90;;;;;;;4.94;100.00;94497.75;5030820;28;24427;-72
2021/12/01 08:58:24;;;;;;;0.63;0.50;;;;;;;4.90;100.00;94486.84;5031185;28;24419;-72
2021/12/01 09:00:51;;;;;;;1.00;0.88;;;;;;;5.01;100.00;94481.06;5031135;28;24829;-72
2021/12/01 09:03:19;;;;;;;0.70;0.57;;;;;;;4.99;100.00;94481.13;5030401;28;24423;-72
2021/12/01 09:05:46;;;;;;;4.30;1.83;;;;;;;5.04;100.00;94475.72;5030094;28;24474;-72
2021/12/01 09:08:13;;;;;;;1.77;0.98;;;;;;;5.03;100.00;94469.75;5031052;28;24459;-72
2021/12/01 09:10:40;;;;;;;1.40;0.90;;;;;;;5.00;100.00;94469.94;5031008;28;24419;-72
2021/12/01 09:13:09;;;;;;;1.70;0.90;;;;;;;5.07;100.00;94473.78;5030833;28;24420;-72
2021/12/01 09:15:36;;;;;;;1.35;1.08;;;;;;;5.02;100.00;94468.13;5030403;28;24455;-72
2021/12/01 09:18:03;;;;;;;0.73;0.50;;;;;;;5.10;100.00;94454.81;5030695;28;24502;-72
2021/12/01 09:20:30;;;;;;;2.60;1.00;;;;;;;5.22;100.00;94450.66;5031069;28;24848;-72
2021/12/01 09:22:57;;;;;;;2.00;0.70;;;;;;;5.37;100.00;94444.53;5030823;28;24423;-72
2021/12/01 09:25:24;;;;;;;0.63;0.40;;;;;;;5.27;100.00;94438.38;5030103;28;24949;-72
2021/12/01 09:27:51;;;;;;;1.80;0.80;;;;;;;5.26;100.00;94429.81;5030745;28;24828;-72
2021/12/01 09:30:19;;;;;;;0.60;0.60;;;;;;;5.21;100.00;94424.16;5030591;28;24486;-72
2021/12/01 09:32:46;;;;;;;1.10;0.50;;;;;;;5.30;100.00;94425.31;5030474;28;24419;-72
2021/12/01 09:35:15;;;;;;;1.02;0.55;;;;;;;5.39;100.00;94411.91;5030273;28;24860;-72
2021/12/01 09:37:42;;;;;;;1.27;1.00;;;;;;;5.36;100.00;94389.00;5030702;28;24420;-72
2021/12/01 09:40:13;;;;;;;1.50;0.70;;;;;;;5.33;100.00;94384.06;5030555;28;24416;-72
2021/12/01 09:42:42;;;;;;;0.85;0.63;;;;;;;5.34;100.00;94381.41;5030596;28;24530;-72
2021/12/01 09:45:09;;;;;;;1.77;0.38;;;;;;;5.40;100.00;94369.91;5029946;28;24443;-72
2021/12/01 09:47:37;;;;;;;0.77;0.60;;;;;;;5.58;100.00;94373.84;5030472;28;24420;-72
2021/12/01 09:50:05;;;;;;;1.88;1.33;;;;;;;5.73;100.00;94373.75;5030334;28;25142;-72
2021/12/01 09:52:32;;;;;;;2.67;0.82;;;;;;;5.77;100.00;94373.44;5030303;28;24988;-72
2021/12/01 09:54:59;;;;;;;1.83;1.15;;;;;;;5.68;100.00;94368.13;5029957;28;24857;-72
2021/12/01 09:57:25;;;;;;;0.75;0.50;;;;;;;5.67;100.00;94363.88;5030325;28;24416;-72
2021/12/01 09:59:52;;;;;;;0.30;0.25;;;;;;;5.70;100.00;94369.63;5030193;28;24996;-72
2021/12/01 10:02:19;;;;;;;13.48;6.47;;;;;;;5.67;100.00;94363.88;5030224;28;25019;-72
2021/12/01 10:04:46;;;;;;;0.98;0.88;;;;;;;5.72;100.00;94362.66;5030282;28;24425;-72
2021/12/01 10:07:15;;;;;;;0.80;0.70;;;;;;;5.65;100.00;94352.91;5029969;28;24964;-72
2021/12/01 10:09:42;;;;;;;1.08;0.85;;;;;;;5.63;100.00;94352.16;5030294;28;24514;-72
2021/12/01 10:12:10;;;;;;;0.75;0.55;;;;;;;5.66;100.00;94354.53;5030128;28;24794;-72
2021/12/01 10:14:36;;;;;;;0.65;0.30;;;;;;;5.65;100.00;94342.63;5029951;28;24450;-72
2021/12/01 10:17:03;;;;;;;0.50;0.30;;;;;;;5.79;100.00;94337.41;5033855;28;24436;-72
2021/12/01 10:19:30;;;;;;;0.30;0.20;;;;;;;5.71;100.00;94326.78;5033906;28;24430;-72
2021/12/01 10:21:59;;;;;;;1.20;0.20;;;;;;;5.79;100.00;94315.09;5033985;28;24450;-72
2021/12/01 10:24:28;;;;;;;0.50;0.20;;;;;;;5.77;100.00;94316.13;5033992;28;24447;-72
2021/12/01 10:26:57;;;;;;;0.20;0.10;;;;;;;5.83;100.00;94321.66;5033799;28;25063;-73
2021/12/01 10:29:27;;;;;;;0.40;0.23;;;;;;;5.75;100.00;94315.41;5033968;28;24432;-72
2021/12/01 10:31:56;;;;;;;0.20;0.10;;;;;;;5.77;100.00;94304.09;5034173;28;24430;-72
2021/12/01 10:34:25;;;;;;;0.30;0.17;;;;;;;5.82;100.00;94299.47;5033928;28;24444;-72
2021/12/01 10:37:09;;;;;;;0.20;0.20;;;;;;;5.84;100.00;94301.94;5033927;28;24435;-72
2021/12/01 10:39:35;;;;;;;0.10;0.05;;;;;;;5.85;100.00;94293.28;5033647;28;24431;-72
2021/12/01 10:42:04;;;;;;;0.20;0.20;;;;;;;5.86;100.00;94299.25;5033879;28;24542;-73
2021/12/01 10:44:30;;;;;;;0.40;0.20;;;;;;;5.79;100.00;94286.00;5033271;28;24988;-72
2021/12/01 10:46:57;;;;;;;0.40;0.20;;;;;;;5.75;100.00;94287.16;5033471;28;24430;-72
2021/12/01 10:49:32;;;;;;;0.70;0.30;;;;;;;5.79;100.00;94286.84;5033811;28;24428;-72
2021/12/01 10:51:59;;;;;;;0.30;0.28;;;;;;;5.75;100.00;94279.44;5033438;28;24427;-72
2021/12/01 10:54:27;;;;;;;0.50;0.25;;;;;;;5.76;100.00;94270.81;5033233;28;24980;-72
2021/12/01 10:57:20;;;;;;;0.60;0.32;;;;;;;5.75;100.00;94267.41;5033237;28;24450;-72
2021/12/01 10:59:48;;;;;;;0.90;0.30;;;;;;;5.71;100.00;94265.13;5033500;28;24434;-72
2021/12/01 11:02:16;;;;;;;0.38;0.30;;;;;;;5.69;100.00;94256.72;5033529;28;24439;-72
2021/12/01 11:04:44;;;;;;;0.77;0.50;;;;;;;5.59;100.00;94249.63;5033321;28;24542;-72
2021/12/01 11:07:24;;;;;;;0.60;0.30;;;;;;;5.62;100.00;94250.38;5033341;28;24458;-73
2021/12/01 11:10:09;;;;;;;0.32;0.22;;;;;;;5.65;100.00;94245.84;5033228;28;24426;-72
2021/12/01 11:12:37;;;;;;;1.80;0.30;;;;;;;5.66;100.00;94228.69;5033388;28;25024;-72
2021/12/01 11:15:19;;;;;;;1.42;0.98;;;;;;;5.72;100.00;94226.53;5032732;28;24455;-72
2021/12/01 11:17:46;;;;;;;2.07;1.20;;;;;;;5.69;100.00;94220.78;5032993;28;24463;-73
2021/12/01 11:20:13;;;;;;;2.33;1.42;;;;;;;5.72;100.00;94218.00;5032912;28;24949;-72
2021/12/01 11:22:39;;;;;;;1.50;0.90;;;;;;;5.68;100.00;94214.00;5032943;28;24821;-68
2021/12/01 11:25:19;;;;;;;1.90;1.50;;;;;;;5.67;100.00;94212.34;5032554;28;24428;-73
2021/12/01 11:27:48;;;;;;;1.98;1.27;;;;;;;5.74;100.00;94195.56;5031737;28;24458;-73
2021/12/01 11:30:15;;;;;;;2.08;1.35;;;;;;;5.81;100.00;94187.34;5032879;28;24423;-72
2021/12/01 11:32:41;;;;;;;4.00;2.17;;;;;;;5.78;100.00;94177.31;5032593;28;24459;-73
2021/12/01 11:35:08;;;;;;;2.40;1.73;;;;;;;5.84;100.00;94170.91;5032465;28;24506;-72
2021/12/01 11:37:38;;;;;;;3.08;2.05;;;;;;;5.83;100.00;94161.56;5031982;28;24789;-72
2021/12/01 11:40:05;;;;;;;3.40;1.10;;;;;;;5.94;100.00;94158.28;5032786;28;24427;-72